createdAt,value
2018-06-10T00:01:27.487Z,76.45
2018-06-10T00:03:56.870Z,75.13
2018-06-10T00:06:26.365Z,75.73
2018-06-10T00:08:55.737Z,75.50
2018-06-10T00:11:25.161Z,75.99
2018-06-10T00:13:54.537Z,76.68
2018-06-10T00:16:23.924Z,76.61
2018-06-10T00:18:53.309Z,77.16
2018-06-10T00:21:23.505Z,76.92
2018-06-10T00:23:53.114Z,77.53
2018-06-10T00:26:22.552Z,77.86
2018-06-10T00:28:57.264Z,78.00
2018-06-10T00:31:26.667Z,77.54
2018-06-10T00:33:56.100Z,77.84
2018-06-10T00:36:25.474Z,77.95
2018-06-10T00:38:54.992Z,78.09
2018-06-10T00:41:24.374Z,77.76
2018-06-10T00:43:53.765Z,78.40
2018-06-10T00:46:23.434Z,78.41
2018-06-10T00:48:52.897Z,78.65
2018-06-10T00:51:22.511Z,78.81
2018-06-10T00:53:51.936Z,79.33
2018-06-10T00:56:32.318Z,78.99
2018-06-10T00:59:01.728Z,79.06
2018-06-10T01:01:31.149Z,78.68
2018-06-10T01:04:00.533Z,78.88
2018-06-10T01:06:29.955Z,79.00
2018-06-10T01:08:59.886Z,79.27
2018-06-10T01:11:29.432Z,79.78
2018-06-10T01:13:58.822Z,79.08
2018-06-10T01:16:28.166Z,78.75
2018-06-10T01:18:57.528Z,79.14
2018-06-10T01:21:26.906Z,79.46
2018-06-10T01:23:56.307Z,79.43
2018-06-10T01:26:31.023Z,79.40
2018-06-10T01:29:00.401Z,79.25
2018-06-10T01:31:29.776Z,78.81
2018-06-10T01:33:59.137Z,78.84
2018-06-10T01:36:29.064Z,79.62
2018-06-10T01:38:58.482Z,79.47
2018-06-10T01:41:27.907Z,79.96
2018-06-10T01:43:57.782Z,80.41
2018-06-10T01:46:28.311Z,80.86
2018-06-10T01:48:57.741Z,80.21
2018-06-10T01:51:27.106Z,80.41
2018-06-10T01:53:56.874Z,79.45
2018-06-10T01:56:26.273Z,79.23
2018-06-10T01:58:59.514Z,79.25
2018-06-10T02:01:28.980Z,78.98
2018-06-10T02:03:58.364Z,79.03
2018-06-10T02:06:27.760Z,78.88
2018-06-10T02:08:57.539Z,79.21
2018-06-10T02:11:26.905Z,79.45
2018-06-10T02:13:56.271Z,80.61
2018-06-10T02:16:25.829Z,81.13
2018-06-10T02:18:55.284Z,81.49
2018-06-10T02:21:24.671Z,81.89
2018-06-10T02:23:54.024Z,82.17
2018-06-10T02:26:23.422Z,82.40
2018-06-10T02:28:53.086Z,82.24
2018-06-10T02:31:22.685Z,82.11
2018-06-10T02:33:52.069Z,82.31
2018-06-10T02:36:21.458Z,82.55
2018-06-10T02:38:50.850Z,82.72
2018-06-10T02:41:20.212Z,83.01
2018-06-10T02:43:49.616Z,83.02
2018-06-10T02:46:19.004Z,83.18
2018-06-10T02:48:48.389Z,83.31
2018-06-10T02:51:17.760Z,83.34
2018-06-10T02:53:47.206Z,83.56
2018-06-10T02:56:16.593Z,83.29
2018-06-10T02:58:45.969Z,83.61
2018-06-10T03:01:15.349Z,83.23
2018-06-10T03:03:44.712Z,83.60
2018-06-10T03:06:14.093Z,83.61
2018-06-10T03:08:43.538Z,83.61
2018-06-10T03:11:12.969Z,83.23
2018-06-10T03:13:42.356Z,83.31
2018-06-10T03:16:11.775Z,82.98
2018-06-10T03:18:41.160Z,82.75
2018-06-10T03:21:10.581Z,82.22
2018-06-10T03:23:39.986Z,82.25
2018-06-10T03:26:09.344Z,82.64
2018-06-10T03:28:39.073Z,82.43
2018-06-10T03:31:08.475Z,82.86
2018-06-10T03:33:37.927Z,82.84
2018-06-10T03:36:07.335Z,82.80
2018-06-10T03:38:36.681Z,83.06
2018-06-10T03:41:06.156Z,83.22
2018-06-10T03:43:35.616Z,83.38
2018-06-10T03:46:05.005Z,83.38
2018-06-10T03:48:34.404Z,82.85
2018-06-10T03:51:03.803Z,82.06
2018-06-10T03:53:33.202Z,81.96
2018-06-10T03:56:02.608Z,81.62
2018-06-10T03:58:31.996Z,81.09
2018-06-10T04:01:02.176Z,81.38
2018-06-10T04:03:31.573Z,81.34
2018-06-10T04:06:00.941Z,80.82
2018-06-10T04:08:30.345Z,79.98
2018-06-10T04:10:59.695Z,79.61
2018-06-10T04:13:29.116Z,78.93
2018-06-10T04:15:58.481Z,79.05
2018-06-10T04:18:27.824Z,78.66
2018-06-10T04:20:57.255Z,79.16
2018-06-10T04:23:26.660Z,78.87
2018-06-10T04:25:56.033Z,79.18
2018-06-10T04:28:25.400Z,79.10
2018-06-10T04:30:54.895Z,78.93
2018-06-10T04:33:24.263Z,78.14
2018-06-10T04:35:53.641Z,77.25
2018-06-10T04:38:23.020Z,76.42
2018-06-10T04:40:52.609Z,75.25
2018-06-10T04:43:21.951Z,75.85
2018-06-10T04:45:51.354Z,75.54
2018-06-10T04:48:20.721Z,76.08
2018-06-10T04:50:50.144Z,75.32
2018-06-10T04:53:19.576Z,73.65
2018-06-10T04:55:48.960Z,73.83
2018-06-10T04:58:18.388Z,73.68
2018-06-10T05:00:47.856Z,73.42
2018-06-10T05:03:17.215Z,73.03
2018-06-10T05:05:46.628Z,73.20
2018-06-10T05:08:15.997Z,72.69
2018-06-10T05:10:45.720Z,72.92
2018-06-10T05:13:15.173Z,72.62
2018-06-10T05:15:44.986Z,71.83
2018-06-10T05:18:14.367Z,72.13
2018-06-10T05:20:43.766Z,71.86
2018-06-10T05:23:13.192Z,72.47
2018-06-10T05:25:42.603Z,71.97
2018-06-10T05:28:12.003Z,71.48
2018-06-10T05:30:41.381Z,70.80
2018-06-10T05:33:10.815Z,70.81
2018-06-10T05:35:40.217Z,70.11
2018-06-10T05:38:09.621Z,70.05
2018-06-10T05:40:38.989Z,68.60
2018-06-10T05:43:08.391Z,68.40
2018-06-10T05:45:37.836Z,67.78
2018-06-10T05:48:07.251Z,68.65
2018-06-10T05:50:36.737Z,67.89
2018-06-10T05:53:06.550Z,68.04
2018-06-10T05:55:36.023Z,67.73
2018-06-10T05:58:05.523Z,66.59
2018-06-10T06:00:35.002Z,65.08
2018-06-10T06:03:04.454Z,65.22
2018-06-10T06:05:33.927Z,65.16
2018-06-10T06:08:03.393Z,65.17
2018-06-10T06:10:33.356Z,65.64
2018-06-10T06:13:03.721Z,65.21
2018-06-10T06:15:33.159Z,64.78
2018-06-10T06:18:02.608Z,64.48
2018-06-10T06:20:32.825Z,64.66
2018-06-10T06:23:02.236Z,65.13
2018-06-10T06:25:31.646Z,64.87
2018-06-10T06:28:01.047Z,64.43
2018-06-10T06:30:30.413Z,63.64
2018-06-10T06:32:59.892Z,63.35
2018-06-10T06:35:29.286Z,64.14
2018-06-10T06:37:58.764Z,63.82
2018-06-10T06:40:28.206Z,62.37
2018-06-10T06:42:57.700Z,63.16
2018-06-10T06:45:27.105Z,62.50
2018-06-10T06:47:56.539Z,61.46
2018-06-10T06:50:25.985Z,62.22
2018-06-10T06:52:55.474Z,62.45
2018-06-10T06:55:24.925Z,61.54
2018-06-10T06:57:54.360Z,61.76
2018-06-10T07:00:23.922Z,60.63
2018-06-10T07:02:53.521Z,61.33
2018-06-10T07:05:23.180Z,61.63
2018-06-10T07:07:52.609Z,61.37
2018-06-10T07:10:22.013Z,60.31
2018-06-10T07:12:51.452Z,60.74
2018-06-10T07:15:20.877Z,60.73
2018-06-10T07:17:50.268Z,60.78
2018-06-10T07:20:19.639Z,59.47
2018-06-10T07:22:49.008Z,59.45
2018-06-10T07:25:18.412Z,59.82
2018-06-10T07:27:47.828Z,59.60
2018-06-10T07:30:17.298Z,58.88
2018-06-10T07:32:46.738Z,58.67
2018-06-10T07:35:16.202Z,59.06
2018-06-10T07:37:45.677Z,58.08
2018-06-10T07:40:15.101Z,57.54
2018-06-10T07:42:44.484Z,56.18
2018-06-10T07:45:13.873Z,55.83
2018-06-10T07:47:43.265Z,56.29
2018-06-10T07:50:13.620Z,55.93
2018-06-10T07:52:43.120Z,56.39
2018-06-10T07:55:12.520Z,55.18
2018-06-10T07:57:42.008Z,54.56
2018-06-10T08:00:11.447Z,54.77
2018-06-10T08:02:41.016Z,55.06
2018-06-10T08:05:13.405Z,55.08
2018-06-10T08:07:43.443Z,54.30
2018-06-10T08:10:12.830Z,54.58
2018-06-10T08:12:42.217Z,53.64
2018-06-10T08:17:55.494Z,52.06
2018-06-10T08:20:33.758Z,53.44
2018-06-10T08:23:03.129Z,53.29
2018-06-10T08:25:32.590Z,52.36
2018-06-10T08:28:02.018Z,52.13
2018-06-10T08:30:32.863Z,49.97
2018-06-10T08:33:02.266Z,51.21
2018-06-10T08:35:31.677Z,50.56
2018-06-10T08:38:01.063Z,50.18
2018-06-10T08:40:32.240Z,50.04
2018-06-10T08:43:01.628Z,50.41
2018-06-10T08:45:31.113Z,49.17
2018-06-10T08:48:00.494Z,50.15
2018-06-10T08:50:30.571Z,49.40
2018-06-10T08:53:03.665Z,48.13
2018-06-10T08:55:33.119Z,49.67
2018-06-10T08:58:02.526Z,50.00
2018-06-10T09:00:31.971Z,50.48
2018-06-10T09:03:01.372Z,50.08
2018-06-10T09:05:30.802Z,50.09
2018-06-10T09:08:00.180Z,49.68
2018-06-10T09:10:29.582Z,49.28
2018-06-10T09:12:59.005Z,48.72
2018-06-10T09:15:28.446Z,48.92
2018-06-10T09:17:57.867Z,49.26
2018-06-10T09:20:27.229Z,48.24
2018-06-10T09:22:56.697Z,46.55
2018-06-10T09:25:31.972Z,45.57
2018-06-10T09:28:03.773Z,44.96
2018-06-10T09:30:41.701Z,45.92
2018-06-10T09:33:11.273Z,45.67
2018-06-10T09:35:41.796Z,45.12
2018-06-10T09:38:11.496Z,45.36
2018-06-10T09:40:40.911Z,44.55
2018-06-10T09:43:10.285Z,45.22
2018-06-10T09:45:39.660Z,45.17
2018-06-10T09:48:09.029Z,44.69
2018-06-10T09:50:38.437Z,43.09
2018-06-10T09:53:08.151Z,43.47
2018-06-10T09:55:49.326Z,43.46
2018-06-10T09:58:18.731Z,42.89
2018-06-10T10:00:48.618Z,43.45
2018-06-10T10:03:17.992Z,43.09
2018-06-10T10:05:47.398Z,43.13
2018-06-10T10:08:17.721Z,42.54
2018-06-10T10:10:47.080Z,42.31
2018-06-10T10:13:17.426Z,41.34
2018-06-10T10:15:46.796Z,41.01
2018-06-10T10:18:16.221Z,39.26
2018-06-10T10:20:45.650Z,39.46
2018-06-10T10:23:15.826Z,38.73
2018-06-10T10:25:45.168Z,39.77
2018-06-10T10:28:14.554Z,39.04
2018-06-10T10:30:44.037Z,39.83
2018-06-10T10:33:13.502Z,39.16
2018-06-10T10:35:42.948Z,39.05
2018-06-10T10:38:13.023Z,38.44
2018-06-10T10:40:42.572Z,38.17
2018-06-10T10:43:12.004Z,37.88
2018-06-10T10:45:41.494Z,39.37
2018-06-10T10:48:10.941Z,40.05
2018-06-10T10:50:40.581Z,39.84
2018-06-10T10:53:10.010Z,39.23
2018-06-10T10:55:39.504Z,39.33
2018-06-10T10:58:08.913Z,40.14
2018-06-10T11:00:38.358Z,39.64
2018-06-10T11:03:08.042Z,39.89
2018-06-10T11:05:37.548Z,40.05
2018-06-10T11:08:07.003Z,40.17
2018-06-10T11:10:36.760Z,40.35
2018-06-10T11:13:06.189Z,40.23
2018-06-10T11:15:35.808Z,41.36
2018-06-10T11:18:05.249Z,41.79
2018-06-10T11:20:34.662Z,41.10
2018-06-10T11:23:04.117Z,41.50
2018-06-10T11:25:33.611Z,41.62
2018-06-10T11:28:03.190Z,45.80
2018-06-10T11:30:33.559Z,47.42
2018-06-10T11:33:03.297Z,48.46
2018-06-10T11:35:32.768Z,49.27
2018-06-10T11:38:02.241Z,50.05
2018-06-10T11:40:31.741Z,51.54
2018-06-10T11:43:01.178Z,54.68
2018-06-10T11:45:30.593Z,56.11
2018-06-10T11:48:00.011Z,57.23
2018-06-10T11:50:31.078Z,60.59
2018-06-10T11:53:00.492Z,59.32
2018-06-10T11:55:34.157Z,55.41
2018-06-10T11:58:04.074Z,55.70
2018-06-10T12:00:33.659Z,55.46
2018-06-10T12:03:03.110Z,54.92
2018-06-10T12:05:32.563Z,51.52
2018-06-10T12:08:01.975Z,49.32
2018-06-10T12:10:33.556Z,48.24
2018-06-10T12:13:04.004Z,49.98
2018-06-10T12:15:33.453Z,48.13
2018-06-10T12:18:02.812Z,45.38
2018-06-10T12:20:32.201Z,45.34
2018-06-10T12:23:02.573Z,45.67
2018-06-10T12:25:38.882Z,43.77
2018-06-10T12:28:08.399Z,44.45
2018-06-10T12:30:49.556Z,46.56
2018-06-10T12:33:19.024Z,46.94
2018-06-10T12:35:48.474Z,45.43
2018-06-10T12:38:17.875Z,47.48
2018-06-10T12:40:47.393Z,49.21
2018-06-10T12:43:16.828Z,49.88
2018-06-10T12:46:01.254Z,48.97
2018-06-10T12:48:30.801Z,49.16
2018-06-10T12:51:00.371Z,49.79
2018-06-10T12:53:29.857Z,50.47
2018-06-10T12:55:59.352Z,51.64
2018-06-10T12:58:28.831Z,51.70
2018-06-10T13:01:09.883Z,51.92
2018-06-10T13:03:39.429Z,52.54
2018-06-10T13:06:08.829Z,52.13
2018-06-10T13:08:38.307Z,52.61
2018-06-10T13:11:08.423Z,53.59
2018-06-10T13:13:37.820Z,55.19
2018-06-10T13:16:07.573Z,55.25
2018-06-10T13:18:38.066Z,53.99
2018-06-10T13:21:07.537Z,53.93
2018-06-10T13:23:37.002Z,53.84
2018-06-10T13:26:06.421Z,50.47
2018-06-10T13:28:37.578Z,49.97
2018-06-10T13:31:06.993Z,49.01
2018-06-10T13:33:36.986Z,49.40
2018-06-10T13:36:06.554Z,51.46
2018-06-10T13:38:35.980Z,48.68
2018-06-10T13:41:06.324Z,48.48
2018-06-10T13:43:35.724Z,47.45
2018-06-10T13:46:06.152Z,45.33
2018-06-10T13:48:35.732Z,44.63
2018-06-10T13:51:05.166Z,44.19
2018-06-10T13:53:34.622Z,42.68
2018-06-10T13:56:04.124Z,42.92
2018-06-10T13:58:33.517Z,42.66
2018-06-10T14:01:03.037Z,42.05
2018-06-10T14:03:32.502Z,43.21
2018-06-10T14:06:02.154Z,44.97
2018-06-10T14:08:31.688Z,46.98
2018-06-10T14:11:01.184Z,48.21
2018-06-10T14:13:30.528Z,48.13
2018-06-10T14:15:59.960Z,46.38
2018-06-10T14:18:30.316Z,46.75
2018-06-10T14:20:59.750Z,46.14
2018-06-10T14:23:29.429Z,44.73
2018-06-10T14:26:08.109Z,44.73
2018-06-10T14:28:37.481Z,44.11
2018-06-10T14:31:07.038Z,45.51
2018-06-10T14:33:36.484Z,44.78
2018-06-10T14:36:05.880Z,45.25
2018-06-10T14:38:35.265Z,44.52
2018-06-10T14:41:04.662Z,45.99
2018-06-10T14:43:34.050Z,44.45
2018-06-10T14:46:04.013Z,44.19
2018-06-10T14:48:33.373Z,45.28
2018-06-10T14:51:03.093Z,45.76
2018-06-10T14:53:32.483Z,41.27
2018-06-10T14:56:01.881Z,42.95
2018-06-10T14:58:31.292Z,43.73
2018-06-10T15:01:00.660Z,43.41
2018-06-10T15:03:30.066Z,44.13
2018-06-10T15:06:05.659Z,43.67
2018-06-10T15:08:38.896Z,44.19
2018-06-10T15:11:08.393Z,45.02
2018-06-10T15:13:37.798Z,45.45
2018-06-10T15:16:07.196Z,45.76
2018-06-10T15:18:36.584Z,45.79
2018-06-10T15:21:06.006Z,45.76
2018-06-10T15:23:35.385Z,45.81
2018-06-10T15:26:04.837Z,46.93
2018-06-10T15:28:34.241Z,46.96
2018-06-10T15:31:03.702Z,48.20
2018-06-10T15:33:33.125Z,47.54
2018-06-10T15:36:02.581Z,46.29
2018-06-10T15:38:32.140Z,46.23
2018-06-10T15:41:01.541Z,46.11
2018-06-10T15:43:30.920Z,46.00
2018-06-10T15:46:00.313Z,47.41
2018-06-10T15:48:29.731Z,47.88
2018-06-10T15:50:59.221Z,47.15
2018-06-10T15:53:28.701Z,46.27
2018-06-10T15:55:58.242Z,46.37
2018-06-10T15:58:27.610Z,45.60
2018-06-10T16:00:57.020Z,45.28
2018-06-10T16:03:26.526Z,46.67
2018-06-10T16:05:56.369Z,46.62
2018-06-10T16:08:25.820Z,47.78
2018-06-10T16:11:05.693Z,47.86
2018-06-10T16:13:35.264Z,47.89
2018-06-10T16:16:04.681Z,47.87
2018-06-10T16:18:34.085Z,48.45
2018-06-10T16:21:03.511Z,48.34
2018-06-10T16:23:32.961Z,48.42
2018-06-10T16:26:02.365Z,49.24
2018-06-10T16:28:31.816Z,49.10
2018-06-10T16:31:01.182Z,49.27
2018-06-10T16:33:30.680Z,48.88
2018-06-10T16:36:00.053Z,48.50
2018-06-10T16:38:29.428Z,49.14
2018-06-10T16:41:01.700Z,49.54
2018-06-10T16:43:31.558Z,49.57
2018-06-10T16:46:01.345Z,49.68
2018-06-10T16:48:30.777Z,49.97
2018-06-10T16:51:17.129Z,49.74
2018-06-10T16:53:46.505Z,50.17
2018-06-10T16:56:15.927Z,50.52
2018-06-10T16:58:45.340Z,49.85
2018-06-10T17:01:14.827Z,50.43
2018-06-10T17:03:44.398Z,50.19
2018-06-10T17:06:13.912Z,50.42
2018-06-10T17:08:43.328Z,50.60
2018-06-10T17:11:12.765Z,50.48
2018-06-10T17:13:42.305Z,50.19
2018-06-10T17:16:11.784Z,50.35
2018-06-10T17:18:41.357Z,50.33
2018-06-10T17:21:10.779Z,50.33
2018-06-10T17:23:40.363Z,50.21
2018-06-10T17:26:10.196Z,50.34
2018-06-10T17:28:39.605Z,50.19
2018-06-10T17:31:09.309Z,50.36
2018-06-10T17:33:38.716Z,49.94
2018-06-10T17:36:10.547Z,49.62
2018-06-10T17:38:40.030Z,49.11
2018-06-10T17:41:09.618Z,48.21
2018-06-10T17:43:38.985Z,48.24
2018-06-10T17:46:08.337Z,48.45
2018-06-10T17:48:37.757Z,48.14
2018-06-10T17:51:07.185Z,47.04
2018-06-10T17:53:36.650Z,48.07
2018-06-10T17:56:06.400Z,48.06
2018-06-10T17:58:35.797Z,48.69
2018-06-10T18:01:05.273Z,47.97
2018-06-10T18:03:34.657Z,47.12
2018-06-10T18:06:04.131Z,47.82
2018-06-10T18:08:33.524Z,48.10
2018-06-10T18:11:02.909Z,46.91
2018-06-10T18:13:32.384Z,46.56
2018-06-10T18:16:01.747Z,47.50
2018-06-10T18:18:31.132Z,50.28
2018-06-10T18:21:00.695Z,51.05
2018-06-10T18:23:30.204Z,51.68
2018-06-10T18:26:00.301Z,52.95
2018-06-10T18:28:29.670Z,52.85
2018-06-10T18:30:59.358Z,53.01
2018-06-10T18:33:28.740Z,52.61
2018-06-10T18:35:58.147Z,51.71
2018-06-10T18:38:27.520Z,51.57
2018-06-10T18:41:00.637Z,51.86
2018-06-10T18:43:30.258Z,52.10
2018-06-10T18:45:59.693Z,52.42
2018-06-10T18:48:29.080Z,52.08
2018-06-10T18:50:59.141Z,51.96
2018-06-10T18:53:28.934Z,52.42
2018-06-10T18:55:58.314Z,53.13
2018-06-10T18:58:27.724Z,53.76
2018-06-10T19:00:57.124Z,53.54
2018-06-10T19:03:26.534Z,53.41
2018-06-10T19:05:55.916Z,52.83
2018-06-10T19:08:25.496Z,53.18
2018-06-10T19:13:42.105Z,53.89
2018-06-10T19:16:11.674Z,54.11
2018-06-10T19:18:41.860Z,54.41
2018-06-10T19:21:11.848Z,54.17
2018-06-10T19:23:41.954Z,54.76
2018-06-10T19:26:11.577Z,55.18
2018-06-10T19:28:41.070Z,55.93
2018-06-10T19:31:10.467Z,56.10
2018-06-10T19:33:39.916Z,58.64
2018-06-10T19:36:09.292Z,58.77
2018-06-10T19:38:38.819Z,58.84
2018-06-10T19:41:21.541Z,58.95
2018-06-10T19:43:50.909Z,59.93
2018-06-10T19:46:20.272Z,61.69
2018-06-10T19:48:49.690Z,62.30
2018-06-10T19:51:19.118Z,62.54
2018-06-10T19:53:48.509Z,64.50
2018-06-10T19:56:25.616Z,65.34
2018-06-10T19:58:55.961Z,66.33
2018-06-10T20:01:25.501Z,66.40
2018-06-10T20:03:54.921Z,66.67
2018-06-10T20:06:27.898Z,66.34
2018-06-10T20:08:57.316Z,66.63
2018-06-10T20:11:27.820Z,67.15
2018-06-10T20:13:57.225Z,67.21
2018-06-10T20:16:26.832Z,66.73
2018-06-10T20:18:56.373Z,66.57
2018-06-10T20:21:25.813Z,66.54
2018-06-10T20:23:55.165Z,67.34
2018-06-10T20:26:24.560Z,67.09
2018-06-10T20:28:53.929Z,67.19
2018-06-10T20:31:23.335Z,67.28
2018-06-10T20:33:52.832Z,67.53
2018-06-10T20:36:22.185Z,68.03
2018-06-10T20:38:51.752Z,67.96
2018-06-10T20:41:21.259Z,67.93
2018-06-10T20:43:51.328Z,67.90
2018-06-10T20:46:20.827Z,67.86
2018-06-10T20:48:50.241Z,67.97
2018-06-10T20:51:19.722Z,68.42
2018-06-10T20:53:49.171Z,68.23
2018-06-10T20:56:18.576Z,68.61
2018-06-10T20:58:48.081Z,68.89
2018-06-10T21:01:17.422Z,68.72
2018-06-10T21:03:46.853Z,68.93
2018-06-10T21:06:20.143Z,69.19
2018-06-10T21:08:49.501Z,69.54
2018-06-10T21:11:19.089Z,68.95
2018-06-10T21:13:49.628Z,68.81
2018-06-10T21:16:20.053Z,67.33
2018-06-10T21:18:49.426Z,67.78
2018-06-10T21:21:18.855Z,67.42
2018-06-10T21:23:48.479Z,67.61
2018-06-10T21:26:17.863Z,66.59
2018-06-10T21:28:47.236Z,66.94
2018-06-10T21:31:17.640Z,67.17
2018-06-10T21:33:47.085Z,67.00
2018-06-10T21:36:16.491Z,67.13
2018-06-10T21:38:45.908Z,67.57
2018-06-10T21:41:15.271Z,68.21
2018-06-10T21:43:44.680Z,67.93
2018-06-10T21:46:14.090Z,68.31
2018-06-10T21:48:43.474Z,69.32
2018-06-10T21:51:12.856Z,69.36
2018-06-10T21:53:42.265Z,68.84
2018-06-10T21:56:11.739Z,69.32
2018-06-10T21:58:41.119Z,69.77
2018-06-10T22:01:10.638Z,70.83
2018-06-10T22:03:40.409Z,71.10
2018-06-10T22:06:09.816Z,71.14
2018-06-10T22:08:39.220Z,70.84
2018-06-10T22:11:08.658Z,70.88
2018-06-10T22:13:38.066Z,70.21
2018-06-10T22:16:07.493Z,69.71
2018-06-10T22:18:36.879Z,69.85
2018-06-10T22:21:06.400Z,69.24
2018-06-10T22:23:36.060Z,68.92
2018-06-10T22:26:05.965Z,69.12
2018-06-10T22:28:35.802Z,68.50
2018-06-10T22:31:11.989Z,68.18
2018-06-10T22:33:41.362Z,67.99
2018-06-10T22:36:10.738Z,68.24
2018-06-10T22:38:40.418Z,68.11
2018-06-10T22:41:09.905Z,68.63
2018-06-10T22:43:39.308Z,68.27
2018-06-10T22:46:08.806Z,68.27
2018-06-10T22:48:38.157Z,67.80
2018-06-10T22:51:07.630Z,68.14
2018-06-10T22:54:15.924Z,67.54
2018-06-10T22:56:45.295Z,67.17
2018-06-10T22:59:15.113Z,66.70
2018-06-10T23:01:44.572Z,66.44
2018-06-10T23:04:14.043Z,66.23
2018-06-10T23:06:43.407Z,65.89
2018-06-10T23:09:12.864Z,66.13
2018-06-10T23:11:42.256Z,65.97
2018-06-10T23:14:12.270Z,65.44
2018-06-10T23:16:41.665Z,65.96
2018-06-10T23:19:11.084Z,66.10
2018-06-10T23:21:40.437Z,66.19
2018-06-10T23:24:10.367Z,65.88
2018-06-10T23:26:39.822Z,66.62
2018-06-10T23:29:09.252Z,66.79
2018-06-10T23:31:39.152Z,66.87
2018-06-10T23:34:09.173Z,66.71
2018-06-10T23:36:38.591Z,66.74
2018-06-10T23:39:08.281Z,67.52
2018-06-10T23:41:37.738Z,67.47
2018-06-10T23:44:10.877Z,68.16
2018-06-10T23:46:40.258Z,68.42
2018-06-10T23:49:09.681Z,67.99
2018-06-10T23:51:39.092Z,68.39
2018-06-10T23:54:09.016Z,68.10
2018-06-10T23:56:38.382Z,67.72
2018-06-10T23:59:07.899Z,67.96
